Saint Louis Park, Minnesota
Current Conditions -  °F | °C
As of 7:53 AM on Saturday 25 Oct 2014 (Local Time) from KMSP Reporting Station
Few Clouds Few Clouds  
Wind Chill: 51°   Ceiling: Unl
Heat Index: 51°   Visibility: 10mi
Dew Point: 34°   Wind: 10mph
Humidity: 52%   Direction: 290°WNW
Pressure: 30"   Gusts: NA
Location:  44.9053°N, 93.3395°W
Report Text: KMSP 251253Z 29009KT 10SM FEW130 11/01 A3000 RMK AO2 SLP161 T01060011
Loading
Personal Weather Stations






























Interactive Weather Map
Tropical Storm Tracking
New forecast layout! Learn more

10-Day Weather Forecast

Advertisements
Track Severe Weather on mobile